/single-ical_race

* Poquoson Run for the Bulls, RESULTS 2019

/template-parts/post/content.php

2019 Poquoson Run with the Bulls 5K Run & 2 Mile Walk
Poquoson High School, Poquoson, VA
Saturday, October 26, 2019 8:30 AM
Sponsored by Poquoson Education Foundation & Kiwanis Club of Poquoson
USATF Certified Course #VA14036RT (5K)
A PENINSULA TRACK CLUB GRAND PRIX EVENT

Division Div Place O’all Place Name Age City, State Finish Time Pace
Top Overall Men
1 1 Micah Kawecki 15 Poquoson Va 18:50 6:04
2 2 Chris Novakoski 38 Chesapeake Va 19:17 6:13 *
3 3 Patrick Nelson 14 Poquoson Va 19:25 6:15
Top Overall Women
1 6 Cassidy Spakes 15 Poquoson Va 21:30 6:56
2 7 Ava Ranellone-Mims 13 Poquoson Va 21:32 6:56
3 12 Crystal Witte 34 Yorktown Va 21:57 7:04 *
Men: 15 & Under
1 4 Alexander Jones 13 Poquoson Va 19:42 6:21
2 5 Jay McPuffic 13 Poquoson Va 19:58 6:26
3 11 Lui Martin 13 Poquoson Va 21:41 6:59
4 16 Jack Sebring 14 Poquoson Va 22:41 7:18
5 37 Joey Johnson 13 Poquoson Va 25:26 8:11
6 53 Connor Wise 13 Poquoson Va 26:51 8:39
7 75 Yitzhak Bath 10 Yorktown Va 29:24 9:28
8 82 Riley Jones 8 Poquoson Va 30:07 9:42
9 84 Gabe Bath 10 Yorktown Va 30:41 9:53
10 99 Ben Bamford 9 Poquoson Va 32:42 10:32
11 109 Carson Fekete 10 Poquoson Va 33:38 10:50
12 111 Levi Bath 10 Yorktown Va 33:56 10:56
13 121 Nathaniel Bath 12 Yorktown Va 35:15 11:21
Men: 16-19
1 15 Gaston Shepard 16 Poquoson Va 22:26 7:14
2 22 John Tinsley 16 Poquoson Va 23:15 7:29
3 23 Jack Huang 16 Poquoson Va 23:35 7:36
Men: 20-29
1 54 Kitron Wedding 25 Hampton Va 26:55 8:40
2 57 Caleb Conner 28 Yorktown Va 27:07 8:44
3 76 Tim Lutz 29 Poquoson Va 29:31 9:30
Men: 30-39
1 26 Stephen Dewitt 39 Portsmouth Va 24:16 7:49
2 34 James Kawecki 34 Poquoson Va 25:03 8:04
3 62 Thomas Jones 36 Poquoson Va 27:47 8:57
4 74 Paul Heins 31 Poquoson Va 29:22 9:28
Men: 40-49
1 9 Paul Scribbins 46 Gloucester Va 21:38 6:58
2 32 Cj Deaver 40 Yorktown Va 24:46 7:59
3 45 Jonathan Jones 47 Yorktown Va 25:57 8:22
4 83 Kevin Jones 40 Poquoson Va 30:40 9:53
5 91 Hunter Riggins 43 Poquoson Va 32:06 10:20
6 110 Michael Fekete 49 Poquoson Va 33:45 10:52
7 116 John Bath 47 Yorktown Va 34:48 11:12
8 120 Jame Balds 43 Yorktown Va 35:05 11:18
Men: 50-59
1 8 Tony Perez 57 Newport News Va 21:37 6:58
2 10 Thomas Edman 59 Poquoson Va 21:40 6:59
3 13 Kelvin Anderson 58 Newport News Va 22:08 7:08
4 19 Peter Coen 59 Poquoson Va 23:00 7:25
5 27 Nathan Nickerson 57 Poquoson Va 24:21 7:50
6 49 Barclay Shepard 50 Poquoson Va 26:40 8:35
7 50 Paul Olsen 53 Poquoson Va 26:41 8:36
8 55 Mark Konst 51 Newport News Va 27:02 8:43 *
9 56 Lee Abston 53 Poquoson Va 27:05 8:43
10 97 Kevin St. John 51 Poquoson Va 32:34 10:29
11 122 Brian Goins 50 Gloucester Va 36:21 11:42
Men: 60-69
1 38 William R Jones 61 Yorktown Va 25:27 8:12 *
2 40 Bill Dancy 66 Smithfield Va 25:47 8:18
3 58 Wayne Williams 66 Poquoson Va 27:32 8:52 *
4 81 Andrew Medvec 69 Kill Devil Hills NC 30:06 9:41 *
Men: 70 & Over
1 20 Dale Abrahamson 70 Yorktown Va 23:01 7:25 *
2 137 Kenneth Wissinger 83 Poquoson Va 48:19 15:34
Women: 15 & Under
1 47 Ella Smith 15 Poquoson Va 26:39 8:35
2 48 Olivia Dinonno 15 Poquoson Va 26:40 8:35
3 72 Audrey Smith 13 Poquoson Va 29:12 9:24
4 95 Anna Avery 15 Poquoson Va 32:21 10:25
5 104 Lily Wise 11 Poquoson Va 33:09 10:41
6 117 Natanya Bath 12 Yorktown Va 34:51 11:13
7 136 Sasannah Hudson 5 Poquoson Va 45:05 14:31
Women: 16-19
1 14 Casey Avery 17 Poquoson Va 22:19 7:11
Women: 20-29
1 78 April Lutz 25 Poquoson Va 29:43 9:34
Women: 30-39
1 33 Cara Hall 31 Newport News Va 24:47 7:59
2 35 Heather Bove’ 35 Newport News Va 25:06 8:05
3 36 Veronica Warwick 33 Poquoson Va 25:14 8:07
4 39 Ashley Reyher 35 Poquoson Va 25:29 8:12
5 68 Emily Forrest 30 Poquoson Va 28:36 9:13
6 73 Kathleen Heins 31 Poquoson Va 29:13 9:25
7 102 Kristen Jones 35 Poquoson Va 32:56 10:36
8 115 Kimberly Gryszko 38 Poquoson Va 34:35 11:08
9 134 Heather Bamford 39 Poquoson Va 42:14 13:36
Women: 40-49
1 24 Susan Hagel 46 Norfolk Va 24:01 7:44 *
2 46 Melinda Smith 42 Poquoson Va 26:26 8:31
3 52 Amanda Collier 40 Yorktown Va 26:46 8:37 *
4 59 Melissa Hirsch 46 Poquoson Va 27:38 8:54
5 63 Jennifer Little 40 Yorktown Va 27:54 8:59 *
6 67 Heather Waddell 40 Poquoson Va 28:28 9:10
7 77 Dory Holder 46 Poquoson Va 29:38 9:33
8 89 Dawn Watts 43 Yorktown Va 31:51 10:15
9 90 Jessica Epps 40 Yorktown Va 32:02 10:19 *
10 92 Jaclyn Greenwood 42 Suffolk Va 32:08 10:21
11 96 Rachel Sills 42 Hampton Va 32:26 10:27
12 101 Elizabeth Fromm 44 Poquoson Va 32:45 10:33
Women: 50-59
1 41 Valor Foy Jones 56 Newport News Va 25:51 8:20 *
2 51 Maria Peters 54 Yorktown Va 26:43 8:36 *
3 64 Marissa Gray 50 Poquoson Va 28:01 9:01
4 98 Christine Williams 57 Poquoson Va 32:37 10:30 *
Women: 60-69
1 42 Helen Worthington 65 Bena Va 25:53 8:20 *
2 100 Dottie Humphreys 67 Newport News Va 32:43 10:32 *
3 135 Deborah Kelley 61 Poquoson Va 45:00 14:29
Women: 70 & Over
1 80 Barbara Biasi 72 Yorktown Va 30:00 9:40 *
2 Mile Walk – Men
1 25 Brian Brooks 26 Newport News Va 24:04 12:02
2 44 Bryan Leahy 43 Stafford Va 25:57 12:59
3 61 Mike Jacobson 54 Poquoson Va 27:46 13:53
4 85 Stephen Dewitt 64 Poquoson Va 30:50 15:25
5 87 James Sizemore 42 Poquoson Va 31:29 15:45
6 88 Carey Freeman 75 Poquoson Va 31:30 15:45
7 93 Robert S White 96 Hampton Va 32:13 16:07 *
8 103 Johnny Forrest 70 Yorktown Va 32:58 16:29
9 107 Kevin Avery 47 Poquoson Va 33:33 16:47
10 119 David Hinshaw 64 Poquoson Va 34:55 17:28
11 126 Michael Aiken 37 Gloucester Va 37:29 18:45
2 Mile Walk – Women
1 17 Madeline Brooks 24 Newport News Va 22:52 11:26
2 18 Kaylie Forrest 13 Poquoson Va 22:56 11:28
3 28 Grayden Sizemore 14 Poquoson Va 24:24 12:12
4 29 Raleigh Cowan 26 Poquoson Va 24:45 12:23
5 30 Alystra Barefoot 47 Poquoson Va 24:45 12:23
6 31 Tiffany Brakefield 33 Newport News Va 24:46 12:23
7 43 Natasha Jacobson 28 Stafford Va 25:55 12:58
8 60 Sabine Jacobson 53 Poquoson Va 27:44 13:52
9 65 Mary Jones 11 Poquoson Va 28:15 14:08
10 66 Elizabeth Jones 42 Poquoson Va 28:27 14:14
11 69 Cathy Hopkins 60 Poquoson Va 28:59 14:30
12 71 Lisa Nickerson 57 Poquoson Va 29:10 14:35
13 79 Karen Duncan 73 Poquoson Va 29:56 14:58
14 86 Mary Davis 54 Poquoson Va 30:56 15:28
15 94 Patricia Wiedemann 59 Seaford Va 32:19 16:10 *
16 105 Jade Disselhoff 25 Hampton Va 33:14 16:37
17 106 Tracey Avery 38 Poquoson Va 33:31 16:46
18 112 Brenda Moore 60 Poquoson Va 34:16 17:08
19 113 Leora Harty 69 Newport News Va 34:19 17:10
20 114 Crystal Sizemore 42 Poquoson Va 34:25 17:13
21 118 Charlene Hinshaw 63 Poquoson Va 34:54 17:27
22 123 Brooke Gryszko 9 Poquoson Va 36:43 18:22
23 124 Nina Richardson 39 Poquoson Va 36:44 18:22
24 125 Kendall Buonviri 27 Norfolk Va 36:59 18:30
25 127 Liz Aiken 34 Gloucester Va 37:44 18:52
26 128 Nancy Thatcher 62 Amherst Oh 37:52 18:56
27 129 Brittany Baker 28 Hampton Va 37:57 18:59
28 130 Liz Carasella 51 Yorktown Va 37:58 18:59
29 131 Candace Belvin 26 Hampton Va 38:11 19:06
30 132 Beverly Goodman 51 Poquoson Va 38:17 19:09
31 133 Chelsea Kulp 31 Smithfield Va 42:12 21:06

* Denotes a PTC Member